createdAt,value
2022-12-22T00:02:46.095Z,25.80
2022-12-22T00:05:33.287Z,26.83
2022-12-22T00:08:19.238Z,25.97
2022-12-22T00:11:05.216Z,26.00
2022-12-22T00:13:51.400Z,25.17
2022-12-22T00:16:38.870Z,25.73
2022-12-22T00:19:30.702Z,26.80
2022-12-22T00:22:17.288Z,26.50
2022-12-22T00:25:03.304Z,26.33
2022-12-22T00:27:50.255Z,25.67
2022-12-22T00:30:36.464Z,25.33
2022-12-22T00:33:24.396Z,25.80
2022-12-22T00:36:10.720Z,25.07
2022-12-22T00:38:56.268Z,25.53
2022-12-22T00:41:42.039Z,25.27
2022-12-22T00:44:27.708Z,23.87
2022-12-22T00:47:13.719Z,25.47
2022-12-22T00:50:04.627Z,26.20
2022-12-22T00:52:50.827Z,25.87
2022-12-22T00:55:38.524Z,25.70
2022-12-22T00:58:26.502Z,26.23
2022-12-22T01:01:12.346Z,26.57
2022-12-22T01:03:58.133Z,26.87
2022-12-22T01:06:48.676Z,25.63
2022-12-22T01:09:34.911Z,25.97
2022-12-22T01:12:20.756Z,26.57
2022-12-22T01:15:06.584Z,27.10
2022-12-22T01:17:52.500Z,27.27
2022-12-22T01:20:38.367Z,26.33
2022-12-22T01:23:28.751Z,26.83
2022-12-22T01:26:14.836Z,26.93
2022-12-22T01:29:00.428Z,27.57
2022-12-22T01:31:47.393Z,28.03
2022-12-22T01:34:33.171Z,27.87
2022-12-22T01:37:19.229Z,28.57
2022-12-22T01:40:06.758Z,27.37
2022-12-22T01:42:52.956Z,27.30
2022-12-22T01:45:41.262Z,28.60
2022-12-22T01:48:30.376Z,28.73
2022-12-22T01:51:17.235Z,28.93
2022-12-22T01:54:03.218Z,26.53
2022-12-22T01:56:51.214Z,29.00
2022-12-22T01:59:37.562Z,27.70
2022-12-22T02:02:25.115Z,29.07
2022-12-22T02:05:11.473Z,28.03
2022-12-22T02:08:02.334Z,27.27
2022-12-22T02:11:02.689Z,28.13
2022-12-22T02:13:54.339Z,29.30
2022-12-22T02:16:45.091Z,27.47
2022-12-22T02:19:37.310Z,27.67
2022-12-22T02:22:29.548Z,28.13
2022-12-22T02:25:17.879Z,27.33
2022-12-22T02:28:06.390Z,28.40
2022-12-22T02:30:52.679Z,27.87
2022-12-22T02:33:39.927Z,26.47
2022-12-22T02:36:32.822Z,27.03
2022-12-22T02:39:23.636Z,27.07
2022-12-22T02:42:14.014Z,26.77
2022-12-22T02:45:06.887Z,25.07
2022-12-22T02:47:58.629Z,26.20
2022-12-22T02:50:46.973Z,26.77
2022-12-22T02:53:33.716Z,26.03
2022-12-22T02:56:20.399Z,26.13
2022-12-22T02:59:06.313Z,26.00
2022-12-22T03:01:53.900Z,26.90
2022-12-22T03:04:40.105Z,27.57
2022-12-22T03:07:25.911Z,26.47
2022-12-22T03:10:11.914Z,25.23
2022-12-22T03:12:57.835Z,25.57
2022-12-22T03:15:43.825Z,23.30
2022-12-22T03:18:32.140Z,24.43
2022-12-22T03:21:17.933Z,23.90
2022-12-22T03:24:03.998Z,23.27
2022-12-22T03:26:33.582Z,22.83
2022-12-22T03:29:01.757Z,25.30
2022-12-22T03:31:29.970Z,26.03
2022-12-22T03:33:59.539Z,26.90
2022-12-22T03:36:27.752Z,26.23
2022-12-22T03:38:55.900Z,25.37
2022-12-22T03:41:41.619Z,28.13
2022-12-22T03:44:27.295Z,26.03
2022-12-22T03:46:55.526Z,30.53
2022-12-22T03:49:26.238Z,29.43
2022-12-22T03:51:55.129Z,30.30
2022-12-22T03:54:24.236Z,29.47
2022-12-22T03:56:53.070Z,28.10
2022-12-22T03:59:21.764Z,27.60
2022-12-22T04:01:50.648Z,27.93
2022-12-22T04:04:20.199Z,26.37
2022-12-22T04:06:49.782Z,28.00
2022-12-22T04:09:17.934Z,26.53
2022-12-22T04:12:03.786Z,24.07
2022-12-22T04:14:34.655Z,21.30
2022-12-22T04:17:03.198Z,21.23
2022-12-22T04:19:31.340Z,21.63
2022-12-22T04:22:01.246Z,22.07
2022-12-22T04:24:29.550Z,21.17
2022-12-22T04:26:57.805Z,18.17
2022-12-22T04:29:25.997Z,19.97
2022-12-22T04:31:54.268Z,17.87
2022-12-22T04:34:22.436Z,15.73
2022-12-22T04:36:50.664Z,14.33
2022-12-22T04:39:20.167Z,15.37
2022-12-22T04:41:48.408Z,16.10
2022-12-22T04:44:16.580Z,16.50
2022-12-22T04:46:44.701Z,17.47
2022-12-22T04:49:12.864Z,14.53
2022-12-22T04:51:41.056Z,14.87
2022-12-22T04:54:09.242Z,13.60
2022-12-22T04:56:38.756Z,13.73
2022-12-22T04:59:06.892Z,13.17
2022-12-22T05:01:35.155Z,12.57
2022-12-22T05:04:03.362Z,13.83
2022-12-22T05:06:31.562Z,12.47
2022-12-22T05:08:59.732Z,13.37
2022-12-22T05:11:27.970Z,13.40
2022-12-22T05:14:02.058Z,12.83
2022-12-22T05:16:33.509Z,12.70
2022-12-22T05:19:01.707Z,12.67
2022-12-22T05:21:29.943Z,12.57
2022-12-22T05:23:58.132Z,9.77
2022-12-22T05:26:26.322Z,9.73
2022-12-22T05:28:54.453Z,11.63
2022-12-22T05:31:25.077Z,10.83
2022-12-22T05:33:53.407Z,9.57
2022-12-22T05:36:21.532Z,10.33
2022-12-22T05:38:49.744Z,9.30
2022-12-22T05:41:17.915Z,8.53
2022-12-22T05:43:46.109Z,8.43
2022-12-22T05:46:14.294Z,7.77
2022-12-22T05:48:43.934Z,9.13
2022-12-22T05:51:12.202Z,8.70
2022-12-22T05:53:40.868Z,8.23
2022-12-22T05:56:09.520Z,8.70
2022-12-22T05:58:39.509Z,8.47
2022-12-22T06:01:07.940Z,9.63
2022-12-22T06:03:36.511Z,9.00
2022-12-22T06:06:06.526Z,10.17
2022-12-22T06:08:34.743Z,9.43
2022-12-22T06:11:02.866Z,10.17
2022-12-22T06:13:31.040Z,9.87
2022-12-22T06:15:59.261Z,10.00
2022-12-22T06:18:28.260Z,10.00
2022-12-22T06:20:56.687Z,10.20
2022-12-22T06:23:26.208Z,10.40
2022-12-22T06:25:57.706Z,9.33
2022-12-22T06:28:26.255Z,10.03
2022-12-22T06:30:54.718Z,9.60
2022-12-22T06:33:22.948Z,9.30
2022-12-22T06:35:57.950Z,9.40
2022-12-22T06:38:28.901Z,9.27
2022-12-22T06:40:57.237Z,8.70
2022-12-22T06:43:24.445Z,8.57
2022-12-22T06:45:52.659Z,8.60
2022-12-22T06:48:21.042Z,8.97
2022-12-22T06:50:49.202Z,9.20
2022-12-22T06:53:17.398Z,7.70
2022-12-22T06:55:47.127Z,8.27
2022-12-22T06:58:15.430Z,7.87
2022-12-22T07:00:45.418Z,7.20
2022-12-22T07:03:13.881Z,7.70
2022-12-22T07:05:42.272Z,7.03
2022-12-22T07:08:10.512Z,6.63
2022-12-22T07:10:56.378Z,6.67
2022-12-22T07:13:25.956Z,6.67
2022-12-22T07:16:02.122Z,6.23
2022-12-22T07:18:31.613Z,7.23
2022-12-22T07:21:00.916Z,7.13
2022-12-22T07:23:29.201Z,7.83
2022-12-22T07:25:57.381Z,7.20
2022-12-22T07:28:26.908Z,6.80
2022-12-22T07:30:55.645Z,8.17
2022-12-22T07:33:23.885Z,7.33
2022-12-22T07:36:02.518Z,7.70
2022-12-22T07:38:30.631Z,7.20
2022-12-22T07:41:04.608Z,7.20
2022-12-22T07:43:34.090Z,7.33
2022-12-22T07:46:02.316Z,6.90
2022-12-22T07:48:48.333Z,7.27
2022-12-22T07:51:16.517Z,8.23
2022-12-22T07:53:44.688Z,6.73
2022-12-22T07:56:12.892Z,7.60
2022-12-22T07:58:42.369Z,9.73
2022-12-22T08:01:10.520Z,8.57
2022-12-22T08:03:38.703Z,8.93
2022-12-22T08:06:07.147Z,9.80
2022-12-22T08:08:35.417Z,10.60
2022-12-22T08:11:03.687Z,9.87
2022-12-22T08:13:32.097Z,10.70
2022-12-22T08:16:05.391Z,10.33
2022-12-22T08:18:33.613Z,8.57
2022-12-22T08:21:01.822Z,8.50
2022-12-22T08:23:30.064Z,7.60
2022-12-22T08:26:06.414Z,8.13
2022-12-22T08:28:35.745Z,8.53
2022-12-22T08:31:05.803Z,7.73
2022-12-22T08:33:34.083Z,7.47
2022-12-22T08:36:07.755Z,6.67
2022-12-22T08:38:36.602Z,5.93
2022-12-22T08:41:04.865Z,6.40
2022-12-22T08:43:33.266Z,6.30
2022-12-22T08:46:01.483Z,5.53
2022-12-22T08:48:31.085Z,5.20
2022-12-22T08:50:59.290Z,5.57
2022-12-22T08:54:03.047Z,6.07
2022-12-22T08:56:15.556Z,5.30
2022-12-22T08:58:43.671Z,5.17
2022-12-22T09:01:17.295Z,5.30
2022-12-22T09:03:49.148Z,8.97
2022-12-22T09:06:17.363Z,14.40
2022-12-22T09:08:45.581Z,11.00
2022-12-22T09:11:13.719Z,9.60
2022-12-22T09:13:41.985Z,11.10
2022-12-22T09:16:10.620Z,8.60
2022-12-22T09:18:38.909Z,7.20
2022-12-22T09:21:08.519Z,6.77
2022-12-22T09:23:36.714Z,6.40
2022-12-22T09:26:08.744Z,7.00
2022-12-22T09:28:37.360Z,7.10
2022-12-22T09:31:05.930Z,6.30
2022-12-22T09:33:36.149Z,6.43
2022-12-22T09:36:07.570Z,6.57
2022-12-22T09:38:37.174Z,5.90
2022-12-22T09:41:08.820Z,5.83
2022-12-22T09:43:37.050Z,6.00
2022-12-22T09:46:05.261Z,6.00
2022-12-22T09:48:36.555Z,5.80
2022-12-22T09:51:05.603Z,6.00
2022-12-22T09:53:33.959Z,5.20
2022-12-22T09:56:03.597Z,5.33
2022-12-22T09:58:34.404Z,5.43
2022-12-22T10:01:09.190Z,4.17
2022-12-22T10:03:42.919Z,4.00
2022-12-22T10:06:13.495Z,3.40
2022-12-22T10:08:41.961Z,3.50
2022-12-22T10:11:14.152Z,3.50
2022-12-22T10:13:42.400Z,4.43
2022-12-22T10:16:21.008Z,4.43
2022-12-22T10:19:00.301Z,3.87
2022-12-22T10:21:30.244Z,4.50
2022-12-22T10:23:58.991Z,3.90
2022-12-22T10:26:31.766Z,3.40
2022-12-22T10:29:01.783Z,3.40
2022-12-22T10:31:31.173Z,3.10
2022-12-22T10:34:11.443Z,3.17
2022-12-22T10:36:40.153Z,3.80
2022-12-22T10:39:09.673Z,4.03
2022-12-22T10:41:41.749Z,5.03
2022-12-22T10:44:11.029Z,4.50
2022-12-22T10:46:40.587Z,5.37
2022-12-22T10:49:12.712Z,5.67
2022-12-22T10:51:42.326Z,6.67
2022-12-22T10:54:10.534Z,7.43
2022-12-22T10:56:40.076Z,8.20
2022-12-22T10:59:18.158Z,8.23
2022-12-22T11:01:46.478Z,8.87
2022-12-22T11:04:19.416Z,9.73
2022-12-22T11:06:47.567Z,8.40
2022-12-22T11:09:33.228Z,9.17
2022-12-22T11:12:07.637Z,10.00
2022-12-22T11:14:42.478Z,9.27
2022-12-22T11:17:14.241Z,10.17
2022-12-22T11:19:50.783Z,10.20
2022-12-22T11:22:22.797Z,10.80
2022-12-22T11:24:55.703Z,10.40
2022-12-22T11:27:29.669Z,10.60
2022-12-22T11:30:06.941Z,11.20
2022-12-22T11:32:44.554Z,11.77
2022-12-22T11:35:15.445Z,11.63
2022-12-22T11:37:49.474Z,9.93
2022-12-22T11:40:21.533Z,9.17
2022-12-22T11:43:01.667Z,10.30
2022-12-22T11:45:43.065Z,8.77
2022-12-22T11:48:20.987Z,9.17
2022-12-22T11:50:58.121Z,10.03
2022-12-22T11:53:37.243Z,9.83
2022-12-22T11:56:12.192Z,10.70
2022-12-22T11:58:48.668Z,11.60
2022-12-22T12:01:26.290Z,11.07
2022-12-22T12:04:02.393Z,12.80
2022-12-22T12:06:45.477Z,13.50
2022-12-22T12:09:20.311Z,13.33
2022-12-22T12:11:53.570Z,14.07
2022-12-22T12:14:26.452Z,15.23
2022-12-22T12:16:57.977Z,16.20
2022-12-22T12:19:33.394Z,16.50
2022-12-22T12:22:02.639Z,17.37
2022-12-22T12:24:45.695Z,17.07
2022-12-22T12:27:19.896Z,16.70
2022-12-22T12:30:13.475Z,17.87
2022-12-22T12:32:43.458Z,18.60
2022-12-22T12:35:19.244Z,18.10
2022-12-22T12:37:48.149Z,17.73
2022-12-22T12:40:26.204Z,19.10
2022-12-22T12:42:54.775Z,18.50
2022-12-22T12:45:37.436Z,18.27
2022-12-22T12:48:24.513Z,19.20
2022-12-22T12:50:53.294Z,17.90
2022-12-22T12:53:21.857Z,18.97
2022-12-22T12:55:54.490Z,19.20
2022-12-22T12:58:42.938Z,18.23
2022-12-22T13:01:13.578Z,19.10
2022-12-22T13:06:51.518Z,19.03
2022-12-22T13:12:24.820Z,19.57
2022-12-22T13:14:56.545Z,19.80
2022-12-22T13:17:35.820Z,20.57
2022-12-22T13:20:04.645Z,20.00
2022-12-22T13:22:32.873Z,19.47
2022-12-22T13:25:03.747Z,19.87
2022-12-22T13:27:32.358Z,20.63
2022-12-22T13:30:00.552Z,20.03
2022-12-22T13:32:30.423Z,19.50
2022-12-22T13:35:30.227Z,21.27
2022-12-22T13:37:54.486Z,19.93
2022-12-22T13:40:23.370Z,20.87
2022-12-22T13:42:52.942Z,20.50
2022-12-22T13:45:27.279Z,20.40
2022-12-22T13:47:56.038Z,20.30
2022-12-22T13:50:27.339Z,19.00
2022-12-22T13:52:56.845Z,19.53
2022-12-22T13:55:26.345Z,19.53
2022-12-22T13:57:58.599Z,18.10
2022-12-22T14:00:28.203Z,18.73
2022-12-22T14:02:56.538Z,17.50
2022-12-22T14:05:31.493Z,18.67
2022-12-22T14:08:00.164Z,18.17
2022-12-22T14:10:29.557Z,18.03
2022-12-22T14:12:57.820Z,18.17
2022-12-22T14:15:25.945Z,18.17
2022-12-22T14:17:54.201Z,19.03
2022-12-22T14:20:25.867Z,18.03
2022-12-22T14:22:57.626Z,18.27
2022-12-22T14:25:27.967Z,18.47
2022-12-22T14:27:57.115Z,18.50
2022-12-22T14:30:26.166Z,19.13
2022-12-22T14:32:56.026Z,20.17
2022-12-22T14:35:26.970Z,19.27
2022-12-22T14:37:57.289Z,19.37
2022-12-22T14:40:32.730Z,19.43
2022-12-22T14:43:01.844Z,17.97
2022-12-22T14:45:30.325Z,18.07
2022-12-22T14:47:58.585Z,17.93
2022-12-22T14:50:27.754Z,17.03
2022-12-22T14:52:57.750Z,16.37
2022-12-22T14:55:28.124Z,16.37
2022-12-22T14:57:58.204Z,16.80
2022-12-22T15:00:31.114Z,16.10
2022-12-22T15:03:00.543Z,17.03
2022-12-22T15:05:29.595Z,17.23
2022-12-22T15:08:08.896Z,18.23
2022-12-22T15:10:40.441Z,18.77
2022-12-22T15:13:12.692Z,19.97
2022-12-22T15:15:40.919Z,17.77
2022-12-22T15:18:14.011Z,19.90
2022-12-22T15:20:42.210Z,20.37
2022-12-22T15:23:14.752Z,19.67
2022-12-22T15:25:43.014Z,18.97
2022-12-22T15:28:11.373Z,18.87
2022-12-22T15:30:39.941Z,17.90
2022-12-22T15:33:12.252Z,15.83
2022-12-22T15:35:40.463Z,17.20
2022-12-22T15:38:11.397Z,16.37
2022-12-22T15:40:40.993Z,16.53
2022-12-22T15:43:17.596Z,16.10
2022-12-22T15:45:51.122Z,15.80
2022-12-22T15:48:23.363Z,16.80
2022-12-22T15:50:52.749Z,14.90
2022-12-22T15:53:21.239Z,15.87
2022-12-22T15:55:51.604Z,16.10
2022-12-22T15:58:21.113Z,14.93
2022-12-22T16:00:49.287Z,14.83
2022-12-22T16:03:17.535Z,15.00
2022-12-22T16:05:46.729Z,15.77
2022-12-22T16:08:18.497Z,14.90
2022-12-22T16:10:47.306Z,15.33
2022-12-22T16:13:17.662Z,15.50
2022-12-22T16:15:45.875Z,16.00
2022-12-22T16:18:14.339Z,15.90
2022-12-22T16:20:44.365Z,15.87
2022-12-22T16:23:15.253Z,17.03
2022-12-22T16:25:44.825Z,17.90
2022-12-22T16:28:16.050Z,18.53
2022-12-22T16:30:45.594Z,18.20
2022-12-22T16:33:14.095Z,18.67
2022-12-22T16:35:42.553Z,18.03
2022-12-22T16:38:17.963Z,17.00
2022-12-22T16:40:48.013Z,16.27
2022-12-22T16:46:07.324Z,16.13
2022-12-22T16:48:37.780Z,15.60
2022-12-22T16:51:06.425Z,15.50
2022-12-22T16:53:34.664Z,14.33
2022-12-22T16:56:02.820Z,14.70
2022-12-22T16:58:30.965Z,13.53
2022-12-22T17:00:59.116Z,12.83
2022-12-22T17:03:29.580Z,13.50
2022-12-22T17:05:59.410Z,13.30
2022-12-22T17:08:28.934Z,13.20
2022-12-22T17:10:58.449Z,13.87
2022-12-22T17:13:27.184Z,13.30
2022-12-22T17:15:55.398Z,15.13
2022-12-22T17:18:24.073Z,14.23
2022-12-22T17:20:54.931Z,14.13
2022-12-22T17:23:30.396Z,15.50
2022-12-22T17:25:58.875Z,14.97
2022-12-22T17:28:27.062Z,15.27
2022-12-22T17:30:55.494Z,14.60
2022-12-22T17:33:23.701Z,15.93
2022-12-22T17:35:52.019Z,15.10
2022-12-22T17:38:23.038Z,14.70
2022-12-22T17:40:51.377Z,15.63
2022-12-22T17:43:20.206Z,15.93
2022-12-22T17:45:48.797Z,16.27
2022-12-22T17:48:17.424Z,15.93
2022-12-22T17:50:49.319Z,15.97
2022-12-22T17:53:19.785Z,16.47
2022-12-22T17:56:07.794Z,16.83
2022-12-22T17:58:37.033Z,16.07
2022-12-22T18:01:05.220Z,16.17
2022-12-22T18:03:33.910Z,15.53
2022-12-22T18:06:02.214Z,16.30
2022-12-22T18:08:30.538Z,14.70
2022-12-22T18:11:00.344Z,14.13
2022-12-22T18:13:28.544Z,13.13
2022-12-22T18:15:56.948Z,13.30
2022-12-22T18:18:25.207Z,12.23
2022-12-22T18:21:07.537Z,11.77
2022-12-22T18:23:38.085Z,12.13
2022-12-22T18:26:09.746Z,11.43
2022-12-22T18:28:38.045Z,11.20
2022-12-22T18:31:06.315Z,11.10
2022-12-22T18:33:34.502Z,12.60
2022-12-22T18:36:02.696Z,12.00
2022-12-22T18:38:32.277Z,12.53
2022-12-22T18:41:00.461Z,12.67
2022-12-22T18:43:30.022Z,13.07
2022-12-22T18:45:58.203Z,12.80
2022-12-22T18:48:26.323Z,11.10
2022-12-22T18:50:54.537Z,11.37
2022-12-22T18:53:27.672Z,10.03
2022-12-22T18:55:56.126Z,10.23
2022-12-22T18:58:24.722Z,8.20
2022-12-22T19:00:55.292Z,7.23
2022-12-22T19:03:24.687Z,7.50
2022-12-22T19:05:53.041Z,6.70
2022-12-22T19:08:22.129Z,6.40
2022-12-22T19:10:51.076Z,5.60
2022-12-22T19:13:22.034Z,4.27
2022-12-22T19:15:50.801Z,5.47
2022-12-22T19:18:26.288Z,4.80
2022-12-22T19:20:55.501Z,5.10
2022-12-22T19:23:24.136Z,4.47
2022-12-22T19:25:53.996Z,4.57
2022-12-22T19:28:30.121Z,5.37
2022-12-22T19:30:58.578Z,5.20
2022-12-22T19:33:36.544Z,4.73
2022-12-22T19:36:04.853Z,4.50
2022-12-22T19:38:35.475Z,5.23
2022-12-22T19:41:04.972Z,4.70
2022-12-22T19:43:33.488Z,4.83
2022-12-22T19:46:01.724Z,5.43
2022-12-22T19:48:31.271Z,5.90
2022-12-22T19:50:59.435Z,5.80
2022-12-22T19:53:27.971Z,6.97
2022-12-22T19:55:57.183Z,7.47
2022-12-22T19:58:27.242Z,9.97
2022-12-22T20:00:56.147Z,10.40
2022-12-22T20:03:26.005Z,8.77
2022-12-22T20:05:55.620Z,7.97
2022-12-22T20:08:23.774Z,7.80
2022-12-22T20:10:58.478Z,6.33
2022-12-22T20:13:28.850Z,5.47
2022-12-22T20:15:57.014Z,5.80
2022-12-22T20:18:27.424Z,5.33
2022-12-22T20:20:59.384Z,5.67
2022-12-22T20:23:27.975Z,5.40
2022-12-22T20:25:58.483Z,5.57
2022-12-22T20:28:27.351Z,6.30
2022-12-22T20:30:56.205Z,5.80
2022-12-22T20:33:25.126Z,8.40
2022-12-22T20:35:53.927Z,11.57
2022-12-22T20:38:25.997Z,12.07
2022-12-22T20:40:54.845Z,10.87
2022-12-22T20:43:24.907Z,10.13
2022-12-22T20:45:53.906Z,9.97
2022-12-22T20:48:26.055Z,9.87
2022-12-22T20:50:54.369Z,9.80
2022-12-22T20:53:23.928Z,10.63
2022-12-22T20:55:52.155Z,10.60
2022-12-22T20:58:22.623Z,11.40
2022-12-22T21:00:51.699Z,11.40
2022-12-22T21:03:20.234Z,11.73
2022-12-22T21:05:48.876Z,10.43
2022-12-22T21:08:20.652Z,11.27
2022-12-22T21:10:51.072Z,9.23
2022-12-22T21:13:19.557Z,11.17
2022-12-22T21:15:48.492Z,11.53
2022-12-22T21:18:19.840Z,11.33
2022-12-22T21:20:48.245Z,10.20
2022-12-22T21:23:16.465Z,9.83
2022-12-22T21:25:46.761Z,10.87
2022-12-22T21:28:19.939Z,8.57
2022-12-22T21:30:48.312Z,8.20
2022-12-22T21:33:16.478Z,7.50
2022-12-22T21:35:44.645Z,8.00
2022-12-22T21:38:16.847Z,7.47
2022-12-22T21:40:46.789Z,8.50
2022-12-22T21:43:15.555Z,8.93
2022-12-22T21:45:46.041Z,8.83
2022-12-22T21:48:15.024Z,9.47
2022-12-22T21:50:43.345Z,9.50
2022-12-22T21:53:18.072Z,10.67
2022-12-22T21:55:50.349Z,10.10
2022-12-22T21:58:18.562Z,9.37
2022-12-22T22:00:50.030Z,10.23
2022-12-22T22:03:18.333Z,9.17
2022-12-22T22:05:48.005Z,8.97
2022-12-22T22:08:16.298Z,9.43
2022-12-22T22:10:45.127Z,9.70
2022-12-22T22:13:14.955Z,10.07
2022-12-22T22:15:43.332Z,10.50
2022-12-22T22:18:17.010Z,9.30
2022-12-22T22:20:45.253Z,9.90
2022-12-22T22:23:14.165Z,8.50
2022-12-22T22:25:42.446Z,7.57
2022-12-22T22:28:12.071Z,8.77
2022-12-22T22:30:42.007Z,8.50
2022-12-22T22:33:10.264Z,7.87
2022-12-22T22:35:40.840Z,8.93
2022-12-22T22:38:09.008Z,7.47
2022-12-22T22:40:37.142Z,8.13
2022-12-22T22:43:05.264Z,6.53
2022-12-22T22:45:33.485Z,6.77
2022-12-22T22:48:06.298Z,7.37
2022-12-22T22:50:41.602Z,6.97
2022-12-22T22:53:11.083Z,6.60
2022-12-22T22:55:39.299Z,6.33
2022-12-22T22:58:07.460Z,6.10
2022-12-22T23:00:35.752Z,6.17
2022-12-22T23:03:04.488Z,6.33
2022-12-22T23:05:32.715Z,6.50
2022-12-22T23:08:00.935Z,7.37
2022-12-22T23:10:32.694Z,6.77
2022-12-22T23:13:04.288Z,7.33
2022-12-22T23:15:32.403Z,8.47
2022-12-22T23:18:01.007Z,10.23
2022-12-22T23:20:29.216Z,9.70
2022-12-22T23:22:57.410Z,9.83
2022-12-22T23:25:25.602Z,10.10
2022-12-22T23:27:55.072Z,10.13
2022-12-22T23:30:23.277Z,10.03
2022-12-22T23:32:51.410Z,8.87
2022-12-22T23:35:19.578Z,8.90
2022-12-22T23:37:47.786Z,10.17
2022-12-22T23:40:50.457Z,12.00
2022-12-22T23:43:05.533Z,15.60
2022-12-22T23:45:33.905Z,14.70
2022-12-22T23:48:02.111Z,15.83
2022-12-22T23:50:30.298Z,16.00
2022-12-22T23:52:58.445Z,15.27
2022-12-22T23:55:27.050Z,15.73
2022-12-22T23:57:55.302Z,16.03
